Terminal Aerodrome Forecast
Issued by NWS San Angelo, TX

Home | Current Version | Previous Version | Text Only | Print | Product List | Glossary On
Versions: 1 2 3 4 5 6 7 8 9 10 11
000
FTUS44 KSJT 271100
TAFSJT
TAF
KSJT 271120Z 2712/2812 VRB04KT P6SM SKC
     FM271800 12008KT P6SM SKC
     FM280200 17010KT P6SM SKC=

USA.gov is the U.S. government's official web portal to all federal, state and local government web resources and services.